createdAt,value
2023-03-21T00:04:14.440Z,11.38
2023-03-21T00:09:17.129Z,10.82
2023-03-21T00:14:20.155Z,12.15
2023-03-21T00:19:26.391Z,10.35
2023-03-21T00:29:30.685Z,10.57
2023-03-21T00:34:43.047Z,11.23
2023-03-21T00:39:52.021Z,11.05
2023-03-21T00:44:54.760Z,10.50
2023-03-21T00:49:57.393Z,11.40
2023-03-21T00:54:59.782Z,10.65
2023-03-21T01:00:07.490Z,11.13
2023-03-21T01:05:11.724Z,11.13
2023-03-21T01:10:14.116Z,10.85
2023-03-21T01:15:16.387Z,9.73
2023-03-21T01:20:19.041Z,10.00
2023-03-21T01:25:23.127Z,9.98
2023-03-21T01:30:28.660Z,10.18
2023-03-21T01:35:41.000Z,10.65
2023-03-21T01:40:51.641Z,10.98
2023-03-21T01:51:12.579Z,11.27
2023-03-21T01:56:33.643Z,10.45
2023-03-21T02:01:42.444Z,10.60
2023-03-21T02:06:52.494Z,10.18
2023-03-21T02:12:16.403Z,9.05
2023-03-21T02:44:32.107Z,11.02
2023-03-21T02:50:12.572Z,10.95
2023-03-21T02:55:20.313Z,11.57
2023-03-21T03:00:32.688Z,10.93
2023-03-21T03:05:42.072Z,10.98
2023-03-21T03:31:49.429Z,10.38
2023-03-21T03:36:57.482Z,11.05
2023-03-21T03:42:28.398Z,11.07
2023-03-21T03:53:22.363Z,10.30
2023-03-21T03:58:42.980Z,10.70
2023-03-21T04:03:52.952Z,10.85
2023-03-21T04:08:57.257Z,11.10
2023-03-21T04:39:37.181Z,12.45
2023-03-21T04:44:39.608Z,12.38
2023-03-21T04:49:43.379Z,13.10
2023-03-21T04:54:47.074Z,13.25
2023-03-21T04:59:49.401Z,12.15
2023-03-21T05:04:51.698Z,13.15
2023-03-21T05:09:53.932Z,13.32
2023-03-21T05:14:56.174Z,13.00
2023-03-21T05:19:58.464Z,12.98
2023-03-21T05:25:00.846Z,14.52
2023-03-21T05:30:19.635Z,15.38
2023-03-21T05:35:26.767Z,26.10
2023-03-21T05:40:30.930Z,15.30
2023-03-21T05:45:34.381Z,15.45
2023-03-21T05:50:39.646Z,17.15
2023-03-21T05:55:48.719Z,16.55
2023-03-21T06:01:07.372Z,14.32
2023-03-21T06:06:12.010Z,14.65
2023-03-21T06:11:28.956Z,14.77
2023-03-21T06:16:51.429Z,16.02
2023-03-21T06:21:53.745Z,16.50
2023-03-21T06:26:56.232Z,16.90
2023-03-21T06:32:01.640Z,15.40
2023-03-21T06:37:04.214Z,17.15
2023-03-21T06:42:08.727Z,17.30
2023-03-21T06:47:11.172Z,17.13
2023-03-21T06:52:15.085Z,16.67
2023-03-21T07:48:29.589Z,19.02
2023-03-21T07:53:31.807Z,17.15
2023-03-21T07:58:34.450Z,19.30
2023-03-21T08:03:38.106Z,19.35
2023-03-21T08:08:40.781Z,21.02
2023-03-21T08:13:43.060Z,20.50
2023-03-21T08:18:45.288Z,18.60
2023-03-21T08:23:47.534Z,18.80
2023-03-21T08:28:49.784Z,19.95
2023-03-21T08:33:54.846Z,19.15
2023-03-21T08:39:05.170Z,19.33
2023-03-21T08:44:07.509Z,18.40
2023-03-21T08:49:09.737Z,17.58
2023-03-21T08:54:27.820Z,18.48
2023-03-21T08:59:30.317Z,19.30
2023-03-21T09:04:32.651Z,19.45
2023-03-21T09:09:34.996Z,19.85
2023-03-21T09:14:37.517Z,19.88
2023-03-21T09:19:40.546Z,16.95
2023-03-21T09:24:43.442Z,17.33
2023-03-21T09:29:46.129Z,17.27
2023-03-21T09:34:48.601Z,17.95
2023-03-21T09:39:52.230Z,18.65
2023-03-21T09:50:17.445Z,17.80
2023-03-21T09:55:30.864Z,20.52
2023-03-21T10:00:40.275Z,19.30
2023-03-21T10:05:46.856Z,19.75
2023-03-21T10:10:53.566Z,21.80
2023-03-21T10:15:58.878Z,18.60
